sensor_id;sensor_type;location;lat;lon;timestamp;noise_LAeq;noise_LA_min;noise_LA_max;noise_LA01;noise_LA95
46749;Laerm;33775;47.992;11.864;2022-11-15T00:00:02;40.11;38.21;41.68;;
46749;Laerm;33775;47.992;11.864;2022-11-15T00:02:28;40.10;38.21;41.53;;
46749;Laerm;33775;47.992;11.864;2022-11-15T00:04:53;40.08;38.05;41.46;;
46749;Laerm;33775;47.992;11.864;2022-11-15T00:07:18;40.19;38.18;41.61;;
46749;Laerm;33775;47.992;11.864;2022-11-15T00:09:43;40.24;37.88;41.82;;
46749;Laerm;33775;47.992;11.864;2022-11-15T00:12:09;40.29;38.37;41.61;;
46749;Laerm;33775;47.992;11.864;2022-11-15T00:14:34;40.30;38.67;41.53;;
46749;Laerm;33775;47.992;11.864;2022-11-15T00:16:59;40.26;38.37;41.53;;
46749;Laerm;33775;47.992;11.864;2022-11-15T00:19:24;40.18;38.52;41.61;;
46749;Laerm;33775;47.992;11.864;2022-11-15T00:21:49;40.06;38.05;41.38;;
46749;Laerm;33775;47.992;11.864;2022-11-15T00:24:14;40.08;37.88;41.46;;
46749;Laerm;33775;47.992;11.864;2022-11-15T00:26:40;40.10;38.05;41.46;;
46749;Laerm;33775;47.992;11.864;2022-11-15T00:29:05;40.12;38.32;42.09;;
46749;Laerm;33775;47.992;11.864;2022-11-15T00:31:30;40.15;37.88;41.61;;
46749;Laerm;33775;47.992;11.864;2022-11-15T00:33:55;40.11;38.21;41.61;;
46749;Laerm;33775;47.992;11.864;2022-11-15T00:36:20;40.08;37.88;41.68;;
46749;Laerm;33775;47.992;11.864;2022-11-15T00:38:46;40.01;38.05;41.96;;
46749;Laerm;33775;47.992;11.864;2022-11-15T00:41:11;39.83;38.02;41.22;;
46749;Laerm;33775;47.992;11.864;2022-11-15T00:43:36;39.85;36.69;41.61;;
46749;Laerm;33775;47.992;11.864;2022-11-15T00:46:01;39.82;36.69;41.22;;
46749;Laerm;33775;47.992;11.864;2022-11-15T00:48:27;39.74;37.12;41.22;;
46749;Laerm;33775;47.992;11.864;2022-11-15T00:50:52;39.85;37.32;41.22;;
46749;Laerm;33775;47.992;11.864;2022-11-15T00:53:17;39.90;37.70;41.30;;
46749;Laerm;33775;47.992;11.864;2022-11-15T00:55:43;39.87;36.45;41.30;;
46749;Laerm;33775;47.992;11.864;2022-11-15T00:58:08;39.84;37.12;41.38;;
46749;Laerm;33775;47.992;11.864;2022-11-15T01:00:33;39.89;37.52;41.46;;
46749;Laerm;33775;47.992;11.864;2022-11-15T01:03:02;39.91;37.52;41.46;;
46749;Laerm;33775;47.992;11.864;2022-11-15T01:05:27;39.97;37.32;41.46;;
46749;Laerm;33775;47.992;11.864;2022-11-15T01:07:55;40.17;38.21;41.61;;
46749;Laerm;33775;47.992;11.864;2022-11-15T01:10:21;40.25;38.52;41.53;;
46749;Laerm;33775;47.992;11.864;2022-11-15T01:12:46;40.26;38.37;41.61;;
46749;Laerm;33775;47.992;11.864;2022-11-15T01:15:11;40.14;38.21;41.46;;
46749;Laerm;33775;47.992;11.864;2022-11-15T01:17:37;39.98;37.32;41.30;;
46749;Laerm;33775;47.992;11.864;2022-11-15T01:20:02;39.91;37.32;41.38;;
46749;Laerm;33775;47.992;11.864;2022-11-15T01:22:27;39.90;37.52;41.53;;
46749;Laerm;33775;47.992;11.864;2022-11-15T01:24:53;39.94;37.88;41.22;;
46749;Laerm;33775;47.992;11.864;2022-11-15T01:27:18;40.00;38.21;41.75;;
46749;Laerm;33775;47.992;11.864;2022-11-15T01:29:43;40.05;37.52;41.53;;
46749;Laerm;33775;47.992;11.864;2022-11-15T01:32:08;40.04;38.21;41.46;;
46749;Laerm;33775;47.992;11.864;2022-11-15T01:34:33;40.03;37.88;41.53;;
46749;Laerm;33775;47.992;11.864;2022-11-15T01:36:58;39.99;38.05;41.53;;
46749;Laerm;33775;47.992;11.864;2022-11-15T01:39:24;39.94;38.05;41.55;;
46749;Laerm;33775;47.992;11.864;2022-11-15T01:41:49;39.94;36.91;41.53;;
46749;Laerm;33775;47.992;11.864;2022-11-15T01:46:58;40.14;37.70;41.53;;
46749;Laerm;33775;47.992;11.864;2022-11-15T01:49:25;40.19;38.05;41.53;;
46749;Laerm;33775;47.992;11.864;2022-11-15T01:51:52;40.18;38.21;41.68;;
46749;Laerm;33775;47.992;11.864;2022-11-15T01:54:18;40.12;37.70;41.82;;
46749;Laerm;33775;47.992;11.864;2022-11-15T01:56:46;40.14;37.88;41.38;;
46749;Laerm;33775;47.992;11.864;2022-11-15T01:59:13;40.23;38.05;41.61;;
46749;Laerm;33775;47.992;11.864;2022-11-15T02:01:39;40.21;38.52;41.53;;
46749;Laerm;33775;47.992;11.864;2022-11-15T02:04:15;40.16;38.21;41.61;;
46749;Laerm;33775;47.992;11.864;2022-11-15T02:06:42;40.10;38.37;41.68;;
46749;Laerm;33775;47.992;11.864;2022-11-15T02:09:08;40.21;38.21;41.82;;
46749;Laerm;33775;47.992;11.864;2022-11-15T02:11:33;40.16;38.21;41.46;;
46749;Laerm;33775;47.992;11.864;2022-11-15T02:13:58;40.18;38.21;41.82;;
46749;Laerm;33775;47.992;11.864;2022-11-15T02:19:17;40.34;38.05;41.89;;
46749;Laerm;33775;47.992;11.864;2022-11-15T02:21:50;40.35;38.81;41.53;;
46749;Laerm;33775;47.992;11.864;2022-11-15T02:24:38;40.33;38.52;41.75;;
46749;Laerm;33775;47.992;11.864;2022-11-15T02:34:37;40.30;38.37;41.68;;
46749;Laerm;33775;47.992;11.864;2022-11-15T02:37:17;40.29;38.21;41.68;;
46749;Laerm;33775;47.992;11.864;2022-11-15T02:42:30;40.15;38.05;41.46;;
46749;Laerm;33775;47.992;11.864;2022-11-15T02:45:17;40.02;37.70;41.61;;
46749;Laerm;33775;47.992;11.864;2022-11-15T02:47:45;40.08;37.88;41.53;;
46749;Laerm;33775;47.992;11.864;2022-11-15T02:50:13;40.05;38.05;41.30;;
46749;Laerm;33775;47.992;11.864;2022-11-15T02:52:40;39.95;37.70;41.46;;
46749;Laerm;33775;47.992;11.864;2022-11-15T02:55:25;39.91;37.88;41.46;;
46749;Laerm;33775;47.992;11.864;2022-11-15T03:00:16;40.13;38.21;41.61;;
46749;Laerm;33775;47.992;11.864;2022-11-15T03:08:02;40.14;37.70;41.48;;
46749;Laerm;33775;47.992;11.864;2022-11-15T03:20:16;39.91;37.88;41.75;;
46749;Laerm;33775;47.992;11.864;2022-11-15T03:22:43;39.97;38.05;41.53;;
46749;Laerm;33775;47.992;11.864;2022-11-15T03:25:10;39.97;37.53;41.46;;
46749;Laerm;33775;47.992;11.864;2022-11-15T03:27:39;39.90;37.70;41.30;;
46749;Laerm;33775;47.992;11.864;2022-11-15T03:30:06;39.81;37.32;41.46;;
46749;Laerm;33775;47.992;11.864;2022-11-15T03:32:34;39.85;37.70;41.22;;
46749;Laerm;33775;47.992;11.864;2022-11-15T03:35:06;39.87;37.32;41.46;;
46749;Laerm;33775;47.992;11.864;2022-11-15T03:37:34;39.88;37.32;41.30;;
46749;Laerm;33775;47.992;11.864;2022-11-15T03:40:00;39.87;37.52;41.46;;
46749;Laerm;33775;47.992;11.864;2022-11-15T03:42:35;39.96;37.32;41.38;;
46749;Laerm;33775;47.992;11.864;2022-11-15T03:45:16;39.97;37.52;41.30;;
46749;Laerm;33775;47.992;11.864;2022-11-15T03:47:52;40.00;37.88;41.53;;
46749;Laerm;33775;47.992;11.864;2022-11-15T03:50:19;40.02;38.05;41.38;;
46749;Laerm;33775;47.992;11.864;2022-11-15T03:52:46;40.06;37.52;41.38;;
46749;Laerm;33775;47.992;11.864;2022-11-15T03:55:13;40.10;38.05;41.53;;
46749;Laerm;33775;47.992;11.864;2022-11-15T03:57:39;39.99;37.88;41.46;;
46749;Laerm;33775;47.992;11.864;2022-11-15T04:00:04;40.14;38.21;41.61;;
46749;Laerm;33775;47.992;11.864;2022-11-15T04:02:30;40.20;38.47;41.53;;
46749;Laerm;33775;47.992;11.864;2022-11-15T04:04:55;40.23;38.67;41.68;;
46749;Laerm;33775;47.992;11.864;2022-11-15T04:07:21;40.23;38.21;41.61;;
46749;Laerm;33775;47.992;11.864;2022-11-15T04:09:46;40.18;38.47;41.61;;
46749;Laerm;33775;47.992;11.864;2022-11-15T04:12:35;40.19;38.52;41.61;;
46749;Laerm;33775;47.992;11.864;2022-11-15T04:15:01;40.19;38.05;41.82;;
46749;Laerm;33775;47.992;11.864;2022-11-15T04:17:34;40.23;38.21;41.46;;
46749;Laerm;33775;47.992;11.864;2022-11-15T04:20:01;40.27;38.37;41.68;;
46749;Laerm;33775;47.992;11.864;2022-11-15T04:22:44;40.30;38.67;41.61;;
46749;Laerm;33775;47.992;11.864;2022-11-15T04:25:28;40.34;38.81;41.61;;
46749;Laerm;33775;47.992;11.864;2022-11-15T04:27:54;40.39;38.81;41.75;;
46749;Laerm;33775;47.992;11.864;2022-11-15T04:30:19;40.48;38.99;41.61;;
46749;Laerm;33775;47.992;11.864;2022-11-15T04:32:44;40.53;39.21;41.82;;
46749;Laerm;33775;47.992;11.864;2022-11-15T04:35:09;40.55;39.21;41.82;;
46749;Laerm;33775;47.992;11.864;2022-11-15T04:37:34;40.52;39.21;41.68;;
46749;Laerm;33775;47.992;11.864;2022-11-15T04:40:00;40.52;39.21;41.68;;
46749;Laerm;33775;47.992;11.864;2022-11-15T04:42:25;40.53;39.08;41.68;;
46749;Laerm;33775;47.992;11.864;2022-11-15T04:44:50;40.54;39.08;41.68;;
46749;Laerm;33775;47.992;11.864;2022-11-15T04:47:16;40.47;38.81;41.82;;
46749;Laerm;33775;47.992;11.864;2022-11-15T04:49:41;40.41;39.08;41.75;;
46749;Laerm;33775;47.992;11.864;2022-11-15T04:52:06;40.40;38.81;41.68;;
46749;Laerm;33775;47.992;11.864;2022-11-15T04:54:31;40.36;38.60;41.68;;
46749;Laerm;33775;47.992;11.864;2022-11-15T04:56:57;40.37;38.67;41.75;;
46749;Laerm;33775;47.992;11.864;2022-11-15T04:59:22;40.37;38.52;41.82;;
46749;Laerm;33775;47.992;11.864;2022-11-15T05:01:47;40.35;38.81;41.68;;
46749;Laerm;33775;47.992;11.864;2022-11-15T05:04:12;40.29;38.52;41.46;;
46749;Laerm;33775;47.992;11.864;2022-11-15T05:06:43;40.27;38.81;41.68;;
46749;Laerm;33775;47.992;11.864;2022-11-15T05:09:09;40.27;38.81;41.53;;
46749;Laerm;33775;47.992;11.864;2022-11-15T05:11:34;40.29;38.52;41.68;;
46749;Laerm;33775;47.992;11.864;2022-11-15T05:13:59;40.30;38.81;41.61;;
46749;Laerm;33775;47.992;11.864;2022-11-15T05:16:24;40.36;38.81;41.68;;
46749;Laerm;33775;47.992;11.864;2022-11-15T05:18:50;40.40;38.95;41.82;;
46749;Laerm;33775;47.992;11.864;2022-11-15T05:21:16;40.45;39.08;41.94;;
46749;Laerm;33775;47.992;11.864;2022-11-15T05:23:41;40.48;38.95;41.82;;
46749;Laerm;33775;47.992;11.864;2022-11-15T05:26:07;40.48;38.95;41.75;;
46749;Laerm;33775;47.992;11.864;2022-11-15T05:28:33;40.45;39.08;41.75;;
46749;Laerm;33775;47.992;11.864;2022-11-15T05:31:02;40.43;38.95;41.68;;
46749;Laerm;33775;47.992;11.864;2022-11-15T05:33:28;40.41;38.67;41.68;;
46749;Laerm;33775;47.992;11.864;2022-11-15T05:36:04;40.44;39.08;41.82;;
46749;Laerm;33775;47.992;11.864;2022-11-15T05:38:31;40.47;38.95;41.68;;
46749;Laerm;33775;47.992;11.864;2022-11-15T05:40:56;40.50;39.08;41.75;;
46749;Laerm;33775;47.992;11.864;2022-11-15T05:43:22;40.52;39.08;41.75;;
46749;Laerm;33775;47.992;11.864;2022-11-15T05:45:47;40.53;39.21;41.68;;
46749;Laerm;33775;47.992;11.864;2022-11-15T05:48:13;40.51;39.08;41.89;;
46749;Laerm;33775;47.992;11.864;2022-11-15T05:50:39;40.51;39.21;41.75;;
46749;Laerm;33775;47.992;11.864;2022-11-15T05:53:07;40.47;39.08;41.61;;
46749;Laerm;33775;47.992;11.864;2022-11-15T05:55:32;40.43;38.81;41.75;;
46749;Laerm;33775;47.992;11.864;2022-11-15T05:57:57;40.51;39.21;41.68;;
46749;Laerm;33775;47.992;11.864;2022-11-15T06:00:23;40.52;39.21;41.68;;
46749;Laerm;33775;47.992;11.864;2022-11-15T06:02:48;40.49;38.95;41.89;;
46749;Laerm;33775;47.992;11.864;2022-11-15T06:05:13;40.46;39.08;41.61;;
46749;Laerm;33775;47.992;11.864;2022-11-15T06:07:38;40.49;39.08;41.68;;
46749;Laerm;33775;47.992;11.864;2022-11-15T06:10:04;40.52;39.08;41.68;;
46749;Laerm;33775;47.992;11.864;2022-11-15T06:12:29;40.67;39.21;56.82;;
46749;Laerm;33775;47.992;11.864;2022-11-15T06:14:54;43.58;39.21;54.31;;
46749;Laerm;33775;47.992;11.864;2022-11-15T06:17:19;40.56;39.08;41.82;;
46749;Laerm;33775;47.992;11.864;2022-11-15T06:19:45;40.52;39.08;41.96;;
46749;Laerm;33775;47.992;11.864;2022-11-15T06:22:10;40.53;39.08;41.75;;
46749;Laerm;33775;47.992;11.864;2022-11-15T06:24:35;40.57;39.21;41.89;;
46749;Laerm;33775;47.992;11.864;2022-11-15T06:27:00;40.57;39.34;41.68;;
46749;Laerm;33775;47.992;11.864;2022-11-15T06:29:25;40.56;39.11;41.68;;
46749;Laerm;33775;47.992;11.864;2022-11-15T06:31:50;40.54;39.08;41.68;;
46749;Laerm;33775;47.992;11.864;2022-11-15T06:34:16;40.52;39.08;41.82;;
46749;Laerm;33775;47.992;11.864;2022-11-15T06:36:41;40.51;38.95;41.82;;
46749;Laerm;33775;47.992;11.864;2022-11-15T06:39:06;40.46;38.81;41.82;;
46749;Laerm;33775;47.992;11.864;2022-11-15T06:41:34;40.50;39.08;41.68;;
46749;Laerm;33775;47.992;11.864;2022-11-15T06:44:00;40.52;39.08;41.75;;
46749;Laerm;33775;47.992;11.864;2022-11-15T06:46:25;40.56;39.21;41.96;;
46749;Laerm;33775;47.992;11.864;2022-11-15T06:48:51;40.59;39.08;41.89;;
46749;Laerm;33775;47.992;11.864;2022-11-15T06:51:16;40.55;39.21;42.09;;
46749;Laerm;33775;47.992;11.864;2022-11-15T06:53:41;40.50;39.08;41.75;;
46749;Laerm;33775;47.992;11.864;2022-11-15T06:56:07;40.49;38.95;41.89;;
46749;Laerm;33775;47.992;11.864;2022-11-15T06:58:32;40.61;39.08;42.09;;
46749;Laerm;33775;47.992;11.864;2022-11-15T07:00:59;40.70;39.21;41.96;;
46749;Laerm;33775;47.992;11.864;2022-11-15T07:03:25;40.87;39.34;42.29;;
46749;Laerm;33775;47.992;11.864;2022-11-15T07:05:54;41.04;39.70;42.29;;
46749;Laerm;33775;47.992;11.864;2022-11-15T07:08:20;41.22;40.03;42.29;;
46749;Laerm;33775;47.992;11.864;2022-11-15T07:10:45;41.36;40.27;42.29;;
46749;Laerm;33775;47.992;11.864;2022-11-15T07:13:10;41.24;39.99;42.16;;
46749;Laerm;33775;47.992;11.864;2022-11-15T07:15:35;40.95;39.58;42.03;;
46749;Laerm;33775;47.992;11.864;2022-11-15T07:18:01;40.74;39.46;41.75;;
46749;Laerm;33775;47.992;11.864;2022-11-15T07:20:26;40.57;39.21;41.61;;
46749;Laerm;33775;47.992;11.864;2022-11-15T07:22:55;40.56;39.21;41.53;;
46749;Laerm;33775;47.992;11.864;2022-11-15T07:25:24;40.55;39.21;41.53;;
46749;Laerm;33775;47.992;11.864;2022-11-15T07:27:55;40.62;39.46;41.68;;
46749;Laerm;33775;47.992;11.864;2022-11-15T07:30:21;40.66;39.34;41.68;;
46749;Laerm;33775;47.992;11.864;2022-11-15T07:32:47;40.69;39.34;41.75;;
46749;Laerm;33775;47.992;11.864;2022-11-15T07:35:16;40.68;39.58;41.75;;
46749;Laerm;33775;47.992;11.864;2022-11-15T07:37:41;40.67;39.34;41.75;;
46749;Laerm;33775;47.992;11.864;2022-11-15T07:40:07;40.66;39.35;41.75;;
46749;Laerm;33775;47.992;11.864;2022-11-15T07:42:32;40.59;39.34;41.68;;
46749;Laerm;33775;47.992;11.864;2022-11-15T07:45:16;40.60;39.21;41.75;;
46749;Laerm;33775;47.992;11.864;2022-11-15T07:47:44;40.59;39.08;41.75;;
46749;Laerm;33775;47.992;11.864;2022-11-15T07:50:10;40.67;39.34;41.82;;
46749;Laerm;33775;47.992;11.864;2022-11-15T07:52:35;40.65;39.11;41.89;;
46749;Laerm;33775;47.992;11.864;2022-11-15T07:55:00;40.72;39.34;42.47;;
46749;Laerm;33775;47.992;11.864;2022-11-15T07:57:25;40.84;39.58;42.59;;
46749;Laerm;33775;47.992;11.864;2022-11-15T07:59:51;40.87;39.46;42.22;;
46749;Laerm;33775;47.992;11.864;2022-11-15T08:02:16;40.94;39.46;42.41;;
46749;Laerm;33775;47.992;11.864;2022-11-15T08:04:42;40.99;39.70;42.22;;
46749;Laerm;33775;47.992;11.864;2022-11-15T08:07:08;40.97;39.57;42.22;;
46749;Laerm;33775;47.992;11.864;2022-11-15T08:09:33;40.99;39.58;42.09;;
46749;Laerm;33775;47.992;11.864;2022-11-15T08:11:59;41.11;39.81;42.35;;
46749;Laerm;33775;47.992;11.864;2022-11-15T08:14:24;41.15;40.03;42.29;;
46749;Laerm;33775;47.992;11.864;2022-11-15T08:16:49;40.65;38.52;47.16;;
46749;Laerm;33775;47.992;11.864;2022-11-15T08:19:14;39.52;37.87;40.98;;
46749;Laerm;33775;47.992;11.864;2022-11-15T08:21:39;39.14;37.32;40.89;;
46749;Laerm;33775;47.992;11.864;2022-11-15T08:24:05;38.92;36.69;40.71;;
46749;Laerm;33775;47.992;11.864;2022-11-15T08:26:30;38.40;35.66;40.13;;
46749;Laerm;33775;47.992;11.864;2022-11-15T08:28:55;38.01;33.44;39.81;;
46749;Laerm;33775;47.992;11.864;2022-11-15T08:31:20;38.34;33.90;40.13;;
46749;Laerm;33775;47.992;11.864;2022-11-15T08:33:46;38.77;36.69;40.33;;
46749;Laerm;33775;47.992;11.864;2022-11-15T08:36:15;38.81;36.69;40.23;;
46749;Laerm;33775;47.992;11.864;2022-11-15T08:38:40;38.88;37.12;40.53;;
46749;Laerm;33775;47.992;11.864;2022-11-15T08:41:06;38.89;36.69;40.33;;
46749;Laerm;33775;47.992;11.864;2022-11-15T08:43:31;38.80;36.69;40.43;;
46749;Laerm;33775;47.992;11.864;2022-11-15T08:45:57;38.69;36.69;40.23;;
46749;Laerm;33775;47.992;11.864;2022-11-15T08:48:22;38.54;35.59;40.13;;
46749;Laerm;33775;47.992;11.864;2022-11-15T08:50:48;38.44;35.04;40.13;;
46749;Laerm;33775;47.992;11.864;2022-11-15T08:53:13;38.26;34.69;39.92;;
46749;Laerm;33775;47.992;11.864;2022-11-15T08:55:40;38.09;33.90;40.03;;
46749;Laerm;33775;47.992;11.864;2022-11-15T08:58:05;38.18;32.35;39.81;;
46749;Laerm;33775;47.992;11.864;2022-11-15T09:00:31;38.03;33.90;39.92;;
46749;Laerm;33775;47.992;11.864;2022-11-15T09:02:56;37.76;31.68;39.58;;
46749;Laerm;33775;47.992;11.864;2022-11-15T09:05:21;37.24;30.89;39.92;;
46749;Laerm;33775;47.992;11.864;2022-11-15T09:07:46;36.81;29.92;39.46;;
46749;Laerm;33775;47.992;11.864;2022-11-15T09:10:11;36.82;29.92;39.70;;
46749;Laerm;33775;47.992;11.864;2022-11-15T09:12:37;36.63;28.67;39.92;;
46749;Laerm;33775;47.992;11.864;2022-11-15T09:15:02;36.66;30.54;39.58;;
46749;Laerm;33775;47.992;11.864;2022-11-15T09:17:28;36.77;29.92;39.92;;
46749;Laerm;33775;47.992;11.864;2022-11-15T09:19:53;36.74;28.67;39.92;;
46749;Laerm;33775;47.992;11.864;2022-11-15T09:22:18;36.74;29.92;39.92;;
46749;Laerm;33775;47.992;11.864;2022-11-15T09:24:43;36.79;30.89;39.70;;
46749;Laerm;33775;47.992;11.864;2022-11-15T09:27:08;36.76;32.35;39.58;;
46749;Laerm;33775;47.992;11.864;2022-11-15T09:29:34;36.71;29.92;39.81;;
46749;Laerm;33775;47.992;11.864;2022-11-15T09:31:59;36.70;30.89;39.92;;
46749;Laerm;33775;47.992;11.864;2022-11-15T09:34:24;36.67;28.67;39.58;;
46749;Laerm;33775;47.992;11.864;2022-11-15T09:36:49;36.65;29.92;39.46;;
46749;Laerm;33775;47.992;11.864;2022-11-15T09:39:15;36.67;28.67;39.92;;
46749;Laerm;33775;47.992;11.864;2022-11-15T09:41:48;36.60;30.89;39.58;;
46749;Laerm;33775;47.992;11.864;2022-11-15T09:49:15;36.64;30.89;40.03;;
46749;Laerm;33775;47.992;11.864;2022-11-15T09:51:45;36.63;31.68;39.46;;
46749;Laerm;33775;47.992;11.864;2022-11-15T09:57:03;36.63;30.89;39.58;;
46749;Laerm;33775;47.992;11.864;2022-11-15T09:59:47;36.65;26.91;39.81;;
46749;Laerm;33775;47.992;11.864;2022-11-15T10:04:42;36.65;30.89;39.81;;
46749;Laerm;33775;47.992;11.864;2022-11-15T10:07:26;36.65;29.92;40.53;;
46749;Laerm;33775;47.992;11.864;2022-11-15T10:10:29;36.67;29.92;39.81;;
46749;Laerm;33775;47.992;11.864;2022-11-15T10:12:44;36.68;30.89;40.03;;
46749;Laerm;33775;47.992;11.864;2022-11-15T10:15:12;36.72;30.54;39.46;;
46749;Laerm;33775;47.992;11.864;2022-11-15T10:17:54;36.68;29.92;39.70;;
46749;Laerm;33775;47.992;11.864;2022-11-15T10:20:24;36.70;30.89;39.92;;
46749;Laerm;33775;47.992;11.864;2022-11-15T10:22:52;36.73;31.68;39.81;;
46749;Laerm;33775;47.992;11.864;2022-11-15T10:25:25;36.73;30.89;39.58;;
46749;Laerm;33775;47.992;11.864;2022-11-15T10:28:05;36.73;30.89;39.89;;
46749;Laerm;33775;47.992;11.864;2022-11-15T10:30:35;36.76;28.67;39.81;;
46749;Laerm;33775;47.992;11.864;2022-11-15T10:33:09;36.78;29.92;39.46;;
46749;Laerm;33775;47.992;11.864;2022-11-15T10:35:36;36.78;30.89;39.92;;
46749;Laerm;33775;47.992;11.864;2022-11-15T10:38:05;36.86;31.68;39.70;;
46749;Laerm;33775;47.992;11.864;2022-11-15T10:40:31;37.04;31.68;40.03;;
46749;Laerm;33775;47.992;11.864;2022-11-15T10:45:40;37.24;32.93;39.92;;
46749;Laerm;33775;47.992;11.864;2022-11-15T10:50:37;37.32;32.35;39.92;;
46749;Laerm;33775;47.992;11.864;2022-11-15T10:53:02;37.28;33.44;39.81;;
46749;Laerm;33775;47.992;11.864;2022-11-15T10:55:29;37.36;32.93;40.13;;
46749;Laerm;33775;47.992;11.864;2022-11-15T10:57:58;37.47;5.00;53.27;;
46749;Laerm;33775;47.992;11.864;2022-11-15T11:00:27;37.44;32.93;40.03;;
46749;Laerm;33775;47.992;11.864;2022-11-15T11:03:04;37.55;30.89;55.06;;
46749;Laerm;33775;47.992;11.864;2022-11-15T11:08:02;37.54;33.90;40.18;;
46749;Laerm;33775;47.992;11.864;2022-11-15T11:10:28;37.57;33.44;40.13;;
46749;Laerm;33775;47.992;11.864;2022-11-15T11:12:53;37.77;33.44;40.53;;
46749;Laerm;33775;47.992;11.864;2022-11-15T11:15:19;37.70;33.44;40.71;;
46749;Laerm;33775;47.992;11.864;2022-11-15T11:23:03;37.55;32.93;40.43;;
46749;Laerm;33775;47.992;11.864;2022-11-15T11:33:26;37.62;32.35;40.53;;
46749;Laerm;33775;47.992;11.864;2022-11-15T11:36:00;37.63;32.93;40.13;;
46749;Laerm;33775;47.992;11.864;2022-11-15T11:41:00;37.71;30.89;41.06;;
46749;Laerm;33775;47.992;11.864;2022-11-15T11:43:33;37.59;33.44;40.33;;
46749;Laerm;33775;47.992;11.864;2022-11-15T11:48:33;37.69;33.44;40.43;;
46749;Laerm;33775;47.992;11.864;2022-11-15T11:51:08;37.72;32.93;40.33;;
46749;Laerm;33775;47.992;11.864;2022-11-15T11:53:44;37.64;32.93;40.80;;
46749;Laerm;33775;47.992;11.864;2022-11-15T11:59:21;37.69;32.93;40.53;;
46749;Laerm;33775;47.992;11.864;2022-11-15T12:01:50;37.66;32.93;40.80;;
46749;Laerm;33775;47.992;11.864;2022-11-15T12:04:18;37.68;33.44;40.33;;
46749;Laerm;33775;47.992;11.864;2022-11-15T12:06:47;37.77;33.44;41.38;;
46749;Laerm;33775;47.992;11.864;2022-11-15T12:12:01;37.48;32.00;40.23;;
46749;Laerm;33775;47.992;11.864;2022-11-15T12:14:38;37.45;32.35;40.33;;
46749;Laerm;33775;47.992;11.864;2022-11-15T12:17:07;37.50;32.35;40.33;;
46749;Laerm;33775;47.992;11.864;2022-11-15T12:19:33;37.39;32.35;40.23;;
46749;Laerm;33775;47.992;11.864;2022-11-15T12:22:04;37.36;31.68;40.03;;
46749;Laerm;33775;47.992;11.864;2022-11-15T12:24:34;37.34;32.35;40.13;;
46749;Laerm;33775;47.992;11.864;2022-11-15T12:27:06;37.33;32.93;40.33;;
46749;Laerm;33775;47.992;11.864;2022-11-15T12:29:36;37.32;32.35;39.81;;
46749;Laerm;33775;47.992;11.864;2022-11-15T12:32:02;37.36;32.93;40.23;;
46749;Laerm;33775;47.992;11.864;2022-11-15T12:34:29;37.34;32.35;40.13;;
46749;Laerm;33775;47.992;11.864;2022-11-15T12:37:00;37.33;33.44;40.03;;
46749;Laerm;33775;47.992;11.864;2022-11-15T12:57:09;37.39;32.93;40.71;;
46749;Laerm;33775;47.992;11.864;2022-11-15T13:02:22;37.42;33.44;40.23;;
46749;Laerm;33775;47.992;11.864;2022-11-15T13:04:49;37.43;32.93;40.03;;
46749;Laerm;33775;47.992;11.864;2022-11-15T13:09:59;37.41;32.93;40.53;;
46749;Laerm;33775;47.992;11.864;2022-11-15T13:14:59;37.35;32.35;40.13;;
46749;Laerm;33775;47.992;11.864;2022-11-15T13:17:25;37.32;32.93;39.92;;
46749;Laerm;33775;47.992;11.864;2022-11-15T13:22:23;37.33;32.35;39.92;;
46749;Laerm;33775;47.992;11.864;2022-11-15T13:25:45;37.33;32.93;40.23;;
46749;Laerm;33775;47.992;11.864;2022-11-15T13:27:59;37.30;29.92;40.13;;
46749;Laerm;33775;47.992;11.864;2022-11-15T13:30:26;37.32;32.93;40.23;;
46749;Laerm;33775;47.992;11.864;2022-11-15T13:32:52;37.37;29.92;39.99;;
46749;Laerm;33775;47.992;11.864;2022-11-15T13:35:19;37.32;32.93;40.23;;
46749;Laerm;33775;47.992;11.864;2022-11-15T13:37:45;37.32;32.93;39.92;;
46749;Laerm;33775;47.992;11.864;2022-11-15T13:40:16;37.33;32.35;40.43;;
46749;Laerm;33775;47.992;11.864;2022-11-15T13:42:43;37.35;32.35;40.23;;
46749;Laerm;33775;47.992;11.864;2022-11-15T13:45:11;37.39;31.33;39.92;;
46749;Laerm;33775;47.992;11.864;2022-11-15T13:47:37;37.39;32.35;39.81;;
46749;Laerm;33775;47.992;11.864;2022-11-15T13:50:02;37.34;32.93;40.03;;
46749;Laerm;33775;47.992;11.864;2022-11-15T13:52:30;37.31;33.44;39.92;;
46749;Laerm;33775;47.992;11.864;2022-11-15T13:57:47;37.33;32.93;40.13;;
46749;Laerm;33775;47.992;11.864;2022-11-15T14:00:29;37.37;32.93;40.23;;
46749;Laerm;33775;47.992;11.864;2022-11-15T14:02:55;37.31;32.35;40.43;;
46749;Laerm;33775;47.992;11.864;2022-11-15T14:05:23;37.34;32.93;40.43;;
46749;Laerm;33775;47.992;11.864;2022-11-15T14:07:56;37.39;32.93;40.27;;
46749;Laerm;33775;47.992;11.864;2022-11-15T14:10:28;37.32;32.93;40.33;;
46749;Laerm;33775;47.992;11.864;2022-11-15T14:12:54;37.31;32.35;40.03;;
46749;Laerm;33775;47.992;11.864;2022-11-15T14:17:45;37.34;32.35;40.13;;
46749;Laerm;33775;47.992;11.864;2022-11-15T14:23:18;37.28;31.68;40.43;;
46749;Laerm;33775;47.992;11.864;2022-11-15T14:25:51;37.27;29.92;40.13;;
46749;Laerm;33775;47.992;11.864;2022-11-15T14:30:45;37.26;30.89;40.43;;
46749;Laerm;33775;47.992;11.864;2022-11-15T14:35:56;37.24;33.44;40.03;;
46749;Laerm;33775;47.992;11.864;2022-11-15T14:38:22;37.25;32.93;40.03;;
46749;Laerm;33775;47.992;11.864;2022-11-15T14:40:47;37.21;32.93;40.33;;
46749;Laerm;33775;47.992;11.864;2022-11-15T14:43:13;37.22;32.35;40.13;;
46749;Laerm;33775;47.992;11.864;2022-11-15T14:45:38;37.21;32.93;40.03;;
46749;Laerm;33775;47.992;11.864;2022-11-15T14:48:03;37.19;30.89;39.92;;
46749;Laerm;33775;47.992;11.864;2022-11-15T14:50:29;37.20;32.93;39.92;;
46749;Laerm;33775;47.992;11.864;2022-11-15T14:52:54;37.18;31.68;39.70;;
46749;Laerm;33775;47.992;11.864;2022-11-15T14:55:29;37.13;32.35;39.81;;
46749;Laerm;33775;47.992;11.864;2022-11-15T14:57:56;37.09;30.89;40.03;;
46749;Laerm;33775;47.992;11.864;2022-11-15T15:00:22;37.01;31.68;40.03;;
46749;Laerm;33775;47.992;11.864;2022-11-15T15:02:47;36.96;31.68;39.92;;
46749;Laerm;33775;47.992;11.864;2022-11-15T15:07:38;36.78;32.35;40.13;;
46749;Laerm;33775;47.992;11.864;2022-11-15T15:10:03;36.80;31.68;39.58;;
46749;Laerm;33775;47.992;11.864;2022-11-15T15:12:29;36.80;30.89;40.03;;
46749;Laerm;33775;47.992;11.864;2022-11-15T15:14:54;36.88;29.92;39.70;;
46749;Laerm;33775;47.992;11.864;2022-11-15T15:17:20;36.88;30.89;39.81;;
46749;Laerm;33775;47.992;11.864;2022-11-15T15:19:45;36.92;31.68;40.03;;
46749;Laerm;33775;47.992;11.864;2022-11-15T15:22:17;36.92;29.92;40.33;;
46749;Laerm;33775;47.992;11.864;2022-11-15T15:24:43;36.89;28.67;39.92;;
46749;Laerm;33775;47.992;11.864;2022-11-15T15:27:09;36.87;32.35;40.03;;
46749;Laerm;33775;47.992;11.864;2022-11-15T15:29:34;36.87;29.92;40.23;;
46749;Laerm;33775;47.992;11.864;2022-11-15T15:31:59;36.84;32.35;39.81;;